Time;durP1;ratioP1;P1;durP2;ratioP2;P2;SDS_P1;SDS_P2;PMS_P1;PMS_P2;Temp;Humidity;BMP_temperature;BMP_pressure;BME280_temperature;BME280_humidity;BME280_pressure;Samples;Min_cycle;Max_cycle;Signal;HPM_P1;HPM_P2
2022/06/26 00:00:26;;;;;;;4.27;2.80;;;15.70;99.90;;;;;;5071816;28;20239;-77
2022/06/26 00:02:54;;;;;;;5.27;2.40;;;15.70;99.90;;;;;;5080657;28;20236;-74
2022/06/26 00:05:24;;;;;;;3.27;2.50;;;15.70;99.90;;;;;;5076297;28;20631;-75
2022/06/26 00:07:52;;;;;;;5.67;2.60;;;15.70;99.90;;;;;;5078032;28;20202;-79
2022/06/26 00:10:21;;;;;;;4.00;2.87;;;15.60;99.90;;;;;;5072125;28;20623;-78
2022/06/26 00:12:49;;;;;;;3.00;2.50;;;15.50;99.90;;;;;;5074657;28;20270;-78
2022/06/26 00:15:18;;;;;;;5.10;2.87;;;15.50;99.90;;;;;;5079660;28;20721;-79
2022/06/26 00:17:46;;;;;;;5.00;2.57;;;15.40;99.90;;;;;;5072327;28;20661;-79
2022/06/26 00:20:15;;;;;;;2.93;2.53;;;15.40;99.90;;;;;;5069737;28;20696;-78
2022/06/26 00:22:44;;;;;;;3.10;2.80;;;15.30;99.90;;;;;;5073298;28;20243;-76
2022/06/26 00:25:13;;;;;;;3.37;2.60;;;15.30;99.90;;;;;;5076308;28;20796;-77
2022/06/26 00:27:42;;;;;;;2.90;2.60;;;15.30;99.90;;;;;;5076740;28;20258;-78
2022/06/26 00:30:11;;;;;;;4.47;2.60;;;15.40;99.90;;;;;;5070344;28;20230;-77
2022/06/26 00:32:39;;;;;;;4.47;2.50;;;15.30;99.90;;;;;;5066842;28;20657;-77
2022/06/26 00:35:09;;;;;;;5.03;2.70;;;15.30;99.90;;;;;;5073587;28;20576;-77
2022/06/26 00:37:38;;;;;;;5.00;2.50;;;15.30;99.90;;;;;;5069433;28;20225;-75
2022/06/26 00:40:09;;;;;;;6.30;2.90;;;15.20;99.90;;;;;;5075298;28;20299;-75
2022/06/26 00:42:37;;;;;;;4.00;2.50;;;15.20;99.90;;;;;;5088159;28;20211;-79
2022/06/26 00:45:07;;;;;;;5.87;2.77;;;15.20;99.90;;;;;;5076487;28;20277;-75
2022/06/26 00:47:36;;;;;;;3.53;2.90;;;15.10;99.90;;;;;;5080524;28;20238;-78
2022/06/26 00:50:07;;;;;;;3.47;2.90;;;15.10;99.90;;;;;;5071053;28;20230;-78
2022/06/26 00:52:36;;;;;;;4.40;2.97;;;15.00;99.90;;;;;;5071273;28;20200;-76
2022/06/26 00:55:07;;;;;;;6.10;3.10;;;15.00;99.90;;;;;;5072601;28;20257;-78
2022/06/26 00:57:36;;;;;;;3.50;2.97;;;14.90;99.90;;;;;;5076850;28;20305;-78
2022/06/26 01:00:06;;;;;;;3.13;2.63;;;14.90;99.90;;;;;;5073094;28;20657;-79
2022/06/26 01:02:35;;;;;;;6.07;2.70;;;14.90;99.90;;;;;;5083473;28;20208;-79
2022/06/26 01:05:03;;;;;;;4.60;2.83;;;14.90;99.90;;;;;;5068714;28;20277;-78
2022/06/26 01:07:32;;;;;;;5.23;2.80;;;14.90;99.90;;;;;;5075436;28;20589;-78
2022/06/26 01:10:03;;;;;;;8.93;3.90;;;14.90;99.90;;;;;;5078356;28;20261;-79
2022/06/26 01:12:32;;;;;;;6.13;3.47;;;14.80;99.90;;;;;;5066745;28;20259;-80
2022/06/26 01:15:01;;;;;;;8.33;3.77;;;14.80;99.90;;;;;;5078913;28;20392;-78
2022/06/26 01:17:29;;;;;;;7.33;4.00;;;14.80;99.90;;;;;;5065444;28;20239;-78
2022/06/26 01:19:58;;;;;;;7.27;4.10;;;14.80;99.90;;;;;;5083994;28;20641;-79
2022/06/26 01:22:29;;;;;;;6.80;3.90;;;14.70;99.90;;;;;;5076165;28;20337;-77
2022/06/26 01:24:57;;;;;;;5.83;3.53;;;14.70;99.90;;;;;;5074435;28;20255;-76
2022/06/26 01:27:26;;;;;;;5.87;3.80;;;14.70;99.90;;;;;;5083972;28;20204;-76
2022/06/26 01:29:54;;;;;;;4.23;3.30;;;14.60;99.90;;;;;;5080083;28;20214;-79
2022/06/26 01:32:22;;;;;;;7.10;3.30;;;14.60;99.90;;;;;;5099457;28;20211;-78
2022/06/26 01:34:51;;;;;;;5.23;3.20;;;14.60;99.90;;;;;;5082107;28;20227;-76
2022/06/26 01:37:20;;;;;;;7.73;3.43;;;14.60;99.90;;;;;;5081331;28;20231;-77
2022/06/26 01:39:49;;;;;;;5.47;3.17;;;14.60;99.90;;;;;;5091140;28;20245;-75
2022/06/26 01:42:17;;;;;;;4.70;3.00;;;14.50;99.90;;;;;;5085382;28;20219;-77
2022/06/26 01:44:45;;;;;;;4.80;3.10;;;14.50;99.90;;;;;;5085498;28;20251;-75
2022/06/26 01:47:14;;;;;;;6.77;3.10;;;14.50;99.90;;;;;;5083402;28;20212;-75
2022/06/26 01:49:42;;;;;;;4.20;3.00;;;14.40;99.90;;;;;;5082434;28;20250;-75
2022/06/26 01:52:10;;;;;;;5.17;3.23;;;14.40;99.90;;;;;;5080144;28;20712;-74
2022/06/26 01:54:38;;;;;;;4.43;3.07;;;14.40;99.90;;;;;;5087280;28;20214;-76
2022/06/26 01:57:08;;;;;;;3.70;3.00;;;14.40;99.90;;;;;;5085093;28;20203;-75
2022/06/26 01:59:36;;;;;;;6.27;3.50;;;14.30;99.90;;;;;;5082556;28;20207;-78
2022/06/26 02:02:05;;;;;;;4.70;3.40;;;14.40;99.90;;;;;;5087880;28;20273;-74
2022/06/26 02:04:33;;;;;;;3.50;3.20;;;14.40;99.90;;;;;;5084302;28;20262;-76
2022/06/26 02:07:01;;;;;;;4.67;3.13;;;14.50;99.90;;;;;;5093496;28;20661;-76
2022/06/26 02:15:09;;;;;;;4.73;3.37;;;14.60;99.90;;;;;;5074964;28;20294;-77
2022/06/26 02:17:37;;;;;;;3.80;2.90;;;14.60;99.90;;;;;;5076283;28;20211;-78
2022/06/26 02:20:07;;;;;;;3.20;2.90;;;14.70;99.90;;;;;;5076183;28;20204;-74
2022/06/26 02:22:35;;;;;;;4.13;2.80;;;14.70;99.90;;;;;;5080485;28;20208;-77
2022/06/26 02:25:08;;;;;;;4.70;3.20;;;14.70;99.90;;;;;;5084843;28;20223;-78
2022/06/26 02:27:37;;;;;;;4.90;2.97;;;14.70;99.90;;;;;;5090620;28;20239;-76
2022/06/26 02:30:07;;;;;;;3.83;3.40;;;14.70;99.90;;;;;;5079255;28;20658;-75
2022/06/26 02:32:36;;;;;;;4.17;3.30;;;14.70;99.90;;;;;;5077711;28;20217;-78
2022/06/26 02:35:05;;;;;;;3.47;3.00;;;14.70;99.90;;;;;;5082580;28;20203;-73
2022/06/26 02:37:34;;;;;;;4.63;3.47;;;14.80;99.90;;;;;;5082430;28;20211;-74
2022/06/26 02:40:04;;;;;;;4.60;3.40;;;14.80;99.90;;;;;;5079087;28;20266;-76
2022/06/26 02:42:32;;;;;;;3.70;3.40;;;14.90;99.90;;;;;;5080049;28;20433;-75
2022/06/26 02:45:02;;;;;;;3.97;3.30;;;14.90;99.90;;;;;;5076684;28;20752;-76
2022/06/26 02:47:30;;;;;;;7.07;3.80;;;14.90;99.90;;;;;;5077403;28;20311;-78
2022/06/26 02:49:58;;;;;;;5.87;3.80;;;14.90;99.90;;;;;;5075195;28;20212;-76
2022/06/26 02:52:28;;;;;;;7.53;4.10;;;15.00;99.90;;;;;;5077138;28;20204;-79
2022/06/26 02:54:56;;;;;;;4.70;3.73;;;15.00;99.90;;;;;;5078030;28;20219;-78
2022/06/26 02:57:24;;;;;;;3.87;3.40;;;15.00;99.90;;;;;;5086354;28;20253;-75
2022/06/26 02:59:52;;;;;;;4.67;3.70;;;15.00;99.90;;;;;;5085752;28;20613;-79
2022/06/26 03:02:23;;;;;;;6.47;3.37;;;15.10;99.90;;;;;;5090465;28;20219;-79
2022/06/26 03:04:51;;;;;;;6.10;3.43;;;15.10;99.90;;;;;;5091149;28;20253;-78
2022/06/26 03:07:20;;;;;;;6.83;3.70;;;15.10;99.90;;;;;;5085457;28;20274;-79
2022/06/26 03:09:48;;;;;;;4.70;3.80;;;15.00;99.90;;;;;;5094066;28;20286;-79
2022/06/26 03:12:16;;;;;;;4.00;3.60;;;15.10;99.90;;;;;;5079653;28;20285;-79
2022/06/26 03:14:45;;;;;;;4.37;3.47;;;15.00;99.90;;;;;;5074310;28;20203;-78
2022/06/26 03:17:13;;;;;;;5.60;3.70;;;15.10;99.90;;;;;;5074561;28;20254;-80
2022/06/26 03:19:44;;;;;;;5.27;4.50;;;15.10;99.90;;;;;;5079094;28;20215;-80
2022/06/26 03:22:12;;;;;;;7.50;6.00;;;15.10;99.90;;;;;;5074787;28;20243;-80
2022/06/26 03:24:40;;;;;;;8.00;5.73;;;15.20;99.90;;;;;;5075766;28;20257;-79
2022/06/26 03:27:08;;;;;;;8.27;5.43;;;15.20;99.90;;;;;;5073295;28;20807;-79
2022/06/26 03:29:36;;;;;;;9.50;6.43;;;15.20;99.90;;;;;;5076415;28;20353;-80
2022/06/26 03:32:05;;;;;;;8.83;5.90;;;15.30;99.90;;;;;;5079585;28;20661;-79
2022/06/26 03:34:34;;;;;;;7.10;5.93;;;15.30;99.90;;;;;;5074316;28;20219;-77
2022/06/26 03:37:04;;;;;;;8.00;5.90;;;15.30;99.90;;;;;;5077108;28;20212;-79
2022/06/26 03:39:32;;;;;;;8.87;6.17;;;15.30;99.90;;;;;;5072486;28;20654;-77
2022/06/26 03:42:01;;;;;;;6.13;5.33;;;15.40;99.90;;;;;;5068849;28;20250;-77
2022/06/26 03:44:30;;;;;;;6.93;5.70;;;15.40;99.90;;;;;;5066919;28;20223;-78
2022/06/26 03:46:59;;;;;;;9.57;5.57;;;15.50;99.90;;;;;;5066390;28;20639;-79
2022/06/26 03:49:27;;;;;;;7.20;5.23;;;15.50;99.90;;;;;;5071336;28;20653;-77
2022/06/26 03:51:56;;;;;;;7.57;4.73;;;15.60;99.90;;;;;;5066083;28;20716;-81
2022/06/26 03:54:26;;;;;;;8.67;4.47;;;15.60;99.90;;;;;;5082339;28;20297;-77
2022/06/26 03:56:55;;;;;;;7.43;4.60;;;15.70;99.90;;;;;;5073586;28;20212;-75
2022/06/26 03:59:23;;;;;;;8.07;4.33;;;15.80;99.90;;;;;;5074805;28;20222;-79
2022/06/26 04:01:51;;;;;;;5.70;5.10;;;15.80;99.90;;;;;;5070452;28;20262;-78
2022/06/26 04:04:19;;;;;;;6.03;5.43;;;15.80;99.90;;;;;;5066823;28;20221;-79
2022/06/26 04:06:48;;;;;;;8.60;5.47;;;15.80;99.90;;;;;;5068771;28;20550;-74
2022/06/26 04:09:16;;;;;;;6.40;5.07;;;15.80;99.90;;;;;;5069775;28;20681;-79
2022/06/26 04:11:46;;;;;;;5.83;4.20;;;15.80;99.90;;;;;;5076798;28;20235;-76
2022/06/26 04:14:14;;;;;;;5.60;3.97;;;15.90;99.90;;;;;;5073706;28;20243;-77
2022/06/26 04:16:42;;;;;;;8.80;4.20;;;16.00;99.90;;;;;;5075060;28;20879;-80
2022/06/26 04:19:10;;;;;;;4.83;4.00;;;16.10;99.90;;;;;;5072108;28;20298;-77
2022/06/26 04:21:38;;;;;;;4.83;3.57;;;16.10;99.90;;;;;;5073016;28;20212;-79
2022/06/26 04:24:07;;;;;;;4.33;3.80;;;16.20;99.90;;;;;;5072723;28;20307;-80
2022/06/26 04:26:36;;;;;;;5.70;3.90;;;16.30;99.90;;;;;;5067011;28;20283;-77
2022/06/26 04:29:06;;;;;;;6.73;4.13;;;16.40;99.90;;;;;;5067089;28;20239;-79
2022/06/26 04:31:35;;;;;;;4.03;3.50;;;16.40;99.90;;;;;;5071819;28;20212;-77
2022/06/26 04:34:03;;;;;;;6.03;4.10;;;16.50;99.90;;;;;;5074512;28;20291;-78
2022/06/26 04:36:33;;;;;;;4.33;3.77;;;16.60;99.90;;;;;;5073311;28;20215;-77
2022/06/26 04:39:01;;;;;;;5.47;4.27;;;16.70;99.90;;;;;;5073672;28;20208;-76
2022/06/26 04:41:34;;;;;;;5.43;4.07;;;16.80;99.90;;;;;;5074532;28;20251;-75
2022/06/26 04:44:06;;;;;;;4.70;3.57;;;16.80;99.90;;;;;;5075446;28;20203;-79
2022/06/26 04:46:35;;;;;;;5.93;3.80;;;16.90;99.90;;;;;;5072163;28;20251;-77
2022/06/26 04:49:04;;;;;;;6.70;3.83;;;16.90;99.90;;;;;;5077142;28;20204;-79
2022/06/26 04:51:34;;;;;;;5.37;4.00;;;16.90;99.90;;;;;;5075262;28;20235;-78
2022/06/26 04:54:03;;;;;;;7.23;3.57;;;16.90;99.90;;;;;;5073590;28;20674;-78
2022/06/26 04:56:31;;;;;;;5.97;3.87;;;16.90;99.90;;;;;;5072630;28;20235;-76
2022/06/26 04:59:00;;;;;;;4.30;3.90;;;16.90;99.90;;;;;;5073582;28;20239;-79
2022/06/26 05:01:30;;;;;;;6.30;3.80;;;16.80;99.90;;;;;;5081264;28;20565;-81
2022/06/26 05:03:58;;;;;;;5.43;4.20;;;16.80;99.90;;;;;;5070944;28;20260;-77
2022/06/26 05:06:26;;;;;;;7.53;4.67;;;16.80;99.90;;;;;;5072921;28;20307;-79
2022/06/26 05:08:54;;;;;;;7.97;4.80;;;16.80;99.90;;;;;;5075932;28;20243;-77
2022/06/26 05:11:23;;;;;;;6.20;4.30;;;16.80;99.90;;;;;;5071300;28;20203;-78
2022/06/26 05:13:51;;;;;;;6.77;4.20;;;16.80;99.90;;;;;;5072040;28;20227;-77
2022/06/26 05:16:19;;;;;;;4.77;4.17;;;16.90;99.90;;;;;;5074652;28;20626;-76
2022/06/26 05:18:49;;;;;;;5.67;4.20;;;16.90;99.90;;;;;;5070582;28;20217;-74
2022/06/26 05:21:17;;;;;;;8.53;4.03;;;17.00;99.90;;;;;;5075399;28;20211;-79
2022/06/26 05:23:46;;;;;;;5.97;4.33;;;17.10;99.90;;;;;;5074814;28;20644;-79
2022/06/26 05:26:14;;;;;;;6.93;4.20;;;17.20;99.90;;;;;;5073292;28;20207;-73
2022/06/26 05:28:42;;;;;;;5.37;3.60;;;17.40;99.90;;;;;;5073054;28;20246;-77
2022/06/26 05:31:10;;;;;;;4.07;3.43;;;17.60;99.90;;;;;;5066432;28;20295;-72
2022/06/26 05:33:39;;;;;;;5.10;3.60;;;17.80;99.90;;;;;;5063813;28;20244;-73
2022/06/26 05:36:09;;;;;;;3.93;3.20;;;17.90;99.90;;;;;;5081661;28;20659;-77
2022/06/26 05:38:37;;;;;;;11.57;3.23;;;18.20;99.90;;;;;;5081493;28;20700;-77
2022/06/26 05:41:05;;;;;;;4.43;2.53;;;18.60;99.90;;;;;;5081731;28;20261;-76
2022/06/26 05:43:34;;;;;;;4.50;2.50;;;18.90;99.90;;;;;;5084105;28;20619;-74
2022/06/26 05:46:03;;;;;;;5.23;2.70;;;19.10;99.90;;;;;;5082230;28;20217;-75
2022/06/26 05:48:31;;;;;;;3.77;2.10;;;19.30;99.90;;;;;;5076012;28;20771;-76
2022/06/26 05:50:59;;;;;;;3.77;2.10;;;19.60;99.90;;;;;;5082114;28;20215;-74
2022/06/26 05:53:29;;;;;;;4.87;2.47;;;20.00;99.90;;;;;;5076566;28;20207;-75
2022/06/26 05:55:57;;;;;;;4.83;2.23;;;20.20;99.90;;;;;;5083302;28;20647;-74
2022/06/26 05:58:25;;;;;;;4.67;2.00;;;21.10;99.90;;;;;;5076655;28;20277;-75
2022/06/26 06:00:54;;;;;;;5.20;2.33;;;22.50;99.90;;;;;;5078767;28;20707;-75
2022/06/26 06:03:22;;;;;;;2.40;2.10;;;23.70;99.90;;;;;;5077025;28;20231;-76
2022/06/26 06:05:51;;;;;;;3.97;2.10;;;24.90;99.90;;;;;;5080707;28;20210;-76
2022/06/26 06:08:19;;;;;;;3.37;2.13;;;25.60;99.90;;;;;;5084151;28;20254;-75
2022/06/26 06:10:48;;;;;;;4.67;1.70;;;26.00;99.90;;;;;;5082540;28;20756;-75
2022/06/26 06:13:17;;;;;;;2.17;1.70;;;26.30;99.90;;;;;;5072029;28;20305;-76
2022/06/26 06:15:47;;;;;;;1.70;1.60;;;26.80;99.90;;;;;;5089152;28;20238;-76
2022/06/26 06:18:17;;;;;;;2.58;1.80;;;27.30;99.90;;;;;;5077337;28;20229;-77
2022/06/26 06:20:46;;;;;;;2.17;1.75;;;27.80;99.90;;;;;;5084840;28;20207;-76
2022/06/26 06:23:35;;;;;;;3.17;1.70;;;27.80;99.90;;;;;;5080149;28;20665;-79
2022/06/26 06:26:05;;;;;;;3.70;1.80;;;27.90;99.90;;;;;;5087899;28;20268;-76
2022/06/26 06:28:33;;;;;;;3.03;2.13;;;28.00;99.90;;;;;;5081695;28;20857;-76
2022/06/26 06:31:01;;;;;;;2.53;1.70;;;27.50;99.90;;;;;;5075923;28;20263;-76
2022/06/26 06:33:30;;;;;;;4.75;2.00;;;27.70;99.90;;;;;;5086586;28;20207;-78
2022/06/26 06:35:58;;;;;;;1.85;1.70;;;27.80;99.90;;;;;;5087997;28;20212;-78
2022/06/26 06:38:27;;;;;;;2.10;1.90;;;28.30;99.90;;;;;;5086603;28;20215;-77
2022/06/26 06:40:55;;;;;;;2.13;1.75;;;28.60;99.90;;;;;;5084461;28;20270;-78
2022/06/26 06:43:25;;;;;;;4.50;1.92;;;29.50;99.90;;;;;;5083158;28;20212;-78
2022/06/26 06:45:53;;;;;;;1.90;1.70;;;29.20;99.90;;;;;;5079632;28;20265;-78
2022/06/26 06:48:24;;;;;;;1.98;1.48;;;29.80;99.90;;;;;;5079181;28;20224;-77
2022/06/26 06:50:54;;;;;;;2.00;1.60;;;30.50;99.90;;;;;;5083038;28;20211;-79
2022/06/26 06:53:22;;;;;;;1.90;1.67;;;31.00;99.10;;;;;;5068438;28;20645;-78
2022/06/26 06:55:50;;;;;;;4.32;1.80;;;30.40;98.30;;;;;;5078626;28;20207;-79
2022/06/26 06:58:19;;;;;;;2.55;1.70;;;30.10;99.00;;;;;;5083216;28;20208;-77
2022/06/26 07:00:48;;;;;;;2.50;1.45;;;29.40;99.00;;;;;;5082648;28;20685;-76
2022/06/26 07:03:17;;;;;;;2.63;1.90;;;28.70;99.90;;;;;;5078672;28;20227;-77
2022/06/26 07:05:45;;;;;;;2.25;1.60;;;28.40;99.90;;;;;;5080033;28;20204;-78
2022/06/26 07:08:14;;;;;;;2.78;1.58;;;28.70;99.90;;;;;;5085094;28;20708;-78
2022/06/26 07:10:42;;;;;;;2.65;1.65;;;29.70;99.90;;;;;;5082496;28;20214;-76
2022/06/26 07:13:10;;;;;;;3.30;1.70;;;30.90;98.70;;;;;;5083043;28;20290;-77
2022/06/26 07:15:39;;;;;;;3.03;2.03;;;32.60;96.50;;;;;;5078149;28;20234;-79
2022/06/26 07:18:09;;;;;;;2.80;1.67;;;33.00;95.40;;;;;;5077105;28;20695;-78
2022/06/26 07:20:37;;;;;;;2.50;1.75;;;32.90;94.30;;;;;;5076370;28;20731;-79
2022/06/26 07:23:05;;;;;;;3.15;1.52;;;34.10;91.50;;;;;;5078757;28;20294;-79
2022/06/26 07:25:34;;;;;;;2.72;1.90;;;33.10;92.10;;;;;;5084936;28;20257;-78
2022/06/26 07:28:02;;;;;;;1.90;1.80;;;32.30;92.60;;;;;;5091669;28;20226;-79
2022/06/26 07:30:32;;;;;;;2.22;1.60;;;31.60;93.70;;;;;;5077533;28;20243;-78
2022/06/26 07:33:04;;;;;;;3.25;1.50;;;31.60;94.90;;;;;;5076863;28;20204;-81
2022/06/26 07:35:33;;;;;;;2.10;1.65;;;31.80;93.00;;;;;;5076738;28;20203;-79
2022/06/26 07:38:01;;;;;;;3.33;1.50;;;30.80;94.50;;;;;;5077505;28;20203;-79
2022/06/26 07:40:30;;;;;;;1.77;1.55;;;30.80;94.50;;;;;;5076244;28;20211;-78
2022/06/26 07:42:58;;;;;;;1.50;1.40;;;31.40;95.30;;;;;;5074519;28;20211;-78
2022/06/26 07:45:26;;;;;;;2.30;1.50;;;31.80;93.70;;;;;;5078880;28;20215;-78
2022/06/26 07:47:54;;;;;;;3.30;1.65;;;31.90;92.90;;;;;;5082312;28;20261;-78
2022/06/26 07:50:24;;;;;;;2.67;1.58;;;30.80;93.50;;;;;;5081230;28;20207;-76
2022/06/26 07:52:54;;;;;;;1.98;1.77;;;30.70;93.80;;;;;;5074559;28;20207;-78
2022/06/26 07:55:22;;;;;;;3.55;1.75;;;31.10;93.80;;;;;;5077265;28;20239;-78
2022/06/26 07:57:50;;;;;;;2.53;1.70;;;31.00;93.40;;;;;;5068655;28;20723;-78
2022/06/26 08:00:18;;;;;;;1.60;1.48;;;30.80;92.90;;;;;;5070736;28;20287;-78
2022/06/26 08:02:46;;;;;;;2.88;1.60;;;31.00;92.60;;;;;;5069460;28;20204;-79
2022/06/26 08:05:15;;;;;;;1.77;1.33;;;31.20;92.50;;;;;;5072620;28;20684;-79
2022/06/26 08:07:45;;;;;;;2.60;1.58;;;32.30;91.40;;;;;;5070966;28;20203;-79
2022/06/26 08:10:14;;;;;;;3.08;1.50;;;33.00;91.30;;;;;;5070459;28;20235;-79
2022/06/26 08:12:42;;;;;;;2.35;1.60;;;33.00;89.20;;;;;;5073183;28;20261;-80
2022/06/26 08:15:11;;;;;;;1.73;1.50;;;32.90;89.80;;;;;;5073740;28;20241;-79
2022/06/26 08:17:39;;;;;;;2.35;1.60;;;33.30;89.00;;;;;;5071750;28;20234;-79
2022/06/26 08:20:09;;;;;;;1.55;1.45;;;33.80;89.10;;;;;;5071871;28;20227;-81
2022/06/26 08:22:37;;;;;;;2.45;1.40;;;34.70;86.70;;;;;;5073720;28;20207;-78
2022/06/26 08:25:07;;;;;;;1.90;1.67;;;33.30;87.70;;;;;;5075666;28;20235;-79
2022/06/26 08:27:36;;;;;;;2.60;1.73;;;33.80;86.70;;;;;;5073873;28;20225;-80
2022/06/26 08:30:09;;;;;;;3.85;1.83;;;33.30;90.90;;;;;;5060940;28;20212;-80
2022/06/26 08:32:42;;;;;;;2.75;1.70;;;33.60;90.50;;;;;;5067238;28;20207;-79
2022/06/26 08:35:12;;;;;;;2.28;1.70;;;33.90;88.80;;;;;;5073158;28;20203;-78
2022/06/26 08:37:40;;;;;;;2.30;1.67;;;34.50;85.10;;;;;;5077381;28;20208;-81
2022/06/26 08:40:10;;;;;;;3.05;1.60;;;35.20;85.20;;;;;;5078720;28;20291;-77
2022/06/26 08:42:42;;;;;;;1.83;1.67;;;34.90;86.50;;;;;;5071675;28;20211;-80
2022/06/26 08:45:12;;;;;;;2.90;1.70;;;35.30;81.80;;;;;;5075893;28;20256;-78
2022/06/26 08:47:41;;;;;;;2.38;1.70;;;34.60;85.80;;;;;;5073089;28;20222;-79
2022/06/26 08:50:11;;;;;;;1.60;1.50;;;34.80;88.50;;;;;;5073740;28;20270;-79
2022/06/26 08:52:41;;;;;;;1.45;1.33;;;34.80;81.40;;;;;;5075182;28;20645;-80
2022/06/26 08:55:10;;;;;;;1.63;1.50;;;34.90;81.00;;;;;;5066052;28;20688;-80
2022/06/26 08:57:40;;;;;;;1.77;1.35;;;34.30;82.40;;;;;;5074592;28;20202;-78
2022/06/26 09:00:10;;;;;;;1.45;1.17;;;33.90;84.20;;;;;;5073921;28;20211;-79
2022/06/26 09:02:38;;;;;;;1.17;1.10;;;34.30;87.30;;;;;;5077804;28;20207;-79
2022/06/26 09:05:07;;;;;;;1.80;1.30;;;34.90;81.90;;;;;;5063822;28;20215;-79
2022/06/26 09:07:45;;;;;;;1.88;1.20;;;34.80;81.80;;;;;;5071983;28;20214;-80
2022/06/26 09:10:16;;;;;;;1.52;1.10;;;34.90;80.00;;;;;;5060352;28;20228;-78
2022/06/26 09:12:51;;;;;;;1.20;1.10;;;34.70;77.70;;;;;;5065657;28;20662;-78
2022/06/26 09:15:21;;;;;;;1.20;1.10;;;33.90;81.70;;;;;;5053429;28;20215;-81
2022/06/26 09:18:00;;;;;;;1.50;1.40;;;34.50;87.70;;;;;;5088014;28;20207;-79
2022/06/26 09:20:29;;;;;;;1.48;1.13;;;34.90;80.00;;;;;;5080924;28;20228;-81
2022/06/26 09:22:59;;;;;;;1.38;1.20;;;34.30;81.10;;;;;;5081828;28;20215;-78
2022/06/26 09:25:36;;;;;;;1.30;1.20;;;33.90;82.50;;;;;;5074507;28;20207;-80
2022/06/26 09:28:12;;;;;;;1.85;1.30;;;34.00;82.30;;;;;;5064366;28;20249;-79
2022/06/26 09:30:51;;;;;;;2.47;1.00;;;34.50;79.10;;;;;;5070154;28;20337;-80
2022/06/26 09:33:20;;;;;;;1.55;1.20;;;34.40;79.70;;;;;;5076484;28;20302;-77
2022/06/26 09:35:49;;;;;;;1.45;1.10;;;34.00;83.20;;;;;;5081092;28;20227;-79
2022/06/26 09:38:19;;;;;;;1.42;1.20;;;34.90;81.40;;;;;;5083852;28;20329;-79
2022/06/26 09:40:50;;;;;;;1.38;1.13;;;34.90;76.80;;;;;;5080345;28;20664;-79
2022/06/26 09:43:31;;;;;;;0.90;0.90;;;34.50;78.30;;;;;;5068267;28;20204;-81
2022/06/26 09:46:02;;;;;;;2.45;1.20;;;34.20;80.60;;;;;;5081539;28;20207;-79
2022/06/26 09:48:31;;;;;;;4.53;1.13;;;34.30;82.10;;;;;;5072184;28;20195;-78
2022/06/26 09:51:01;;;;;;;1.08;1.00;;;34.60;75.20;;;;;;5074914;28;20203;-79
2022/06/26 09:53:30;;;;;;;1.85;0.95;;;35.10;73.60;;;;;;5073986;28;20265;-79
2022/06/26 09:56:01;;;;;;;2.92;1.10;;;35.10;74.20;;;;;;5075799;28;20222;-75
2022/06/26 09:58:31;;;;;;;0.95;0.90;;;35.10;73.30;;;;;;5069222;28;20208;-77
2022/06/26 10:06:38;;;;;;;1.30;1.20;;;34.10;73.00;;;;;;5070977;28;20212;-80
2022/06/26 10:09:08;;;;;;;1.30;1.20;;;34.80;71.10;;;;;;5070095;28;20258;-83
2022/06/26 10:11:39;;;;;;;1.60;1.00;;;35.00;70.50;;;;;;5074955;28;20793;-79
2022/06/26 10:14:17;;;;;;;1.10;0.85;;;34.20;72.70;;;;;;5079401;28;20229;-79
2022/06/26 10:17:11;;;;;;;1.50;0.90;;;33.90;71.50;;;;;;5069068;28;20203;-75
2022/06/26 10:19:44;;;;;;;1.98;0.82;;;33.90;70.80;;;;;;5072960;28;20881;-80
2022/06/26 10:22:14;;;;;;;1.45;1.00;;;34.20;72.60;;;;;;5067244;28;20727;-79
2022/06/26 10:24:51;;;;;;;1.42;1.33;;;34.50;70.00;;;;;;5068327;28;20230;-79
2022/06/26 10:27:25;;;;;;;2.03;1.30;;;35.10;69.90;;;;;;5071952;28;20214;-78
2022/06/26 10:30:13;;;;;;;1.27;0.98;;;35.20;71.10;;;;;;5067884;28;20208;-80
2022/06/26 10:32:43;;;;;;;0.85;0.85;;;35.10;69.30;;;;;;5074551;28;20595;-81
2022/06/26 10:35:13;;;;;;;1.20;0.80;;;34.80;68.60;;;;;;5070041;28;20199;-80
2022/06/26 10:37:46;;;;;;;1.02;0.85;;;34.20;68.10;;;;;;5071530;28;20236;-78
2022/06/26 10:42:52;;;;;;;1.08;1.00;;;34.50;66.10;;;;;;5074930;28;20253;-77
2022/06/26 10:43:08;;;;;;;0.88;0.75;;;33.50;69.70;;;;;;5076296;28;20254;-78
2022/06/26 10:45:40;;;;;;;1.00;1.00;;;33.30;69.50;;;;;;5067698;28;20195;-82
2022/06/26 10:48:19;;;;;;;0.80;0.80;;;33.80;71.50;;;;;;5066875;28;20273;-77
2022/06/26 10:50:57;;;;;;;1.25;1.20;;;34.00;71.10;;;;;;5073222;28;20258;-76
2022/06/26 10:53:27;;;;;;;1.30;1.20;;;33.80;68.70;;;;;;5072354;28;20207;-79
2022/06/26 10:55:58;;;;;;;1.08;0.98;;;34.20;73.10;;;;;;5073477;28;20203;-80
2022/06/26 10:58:28;;;;;;;0.85;0.85;;;34.80;69.40;;;;;;5072362;28;20200;-78
2022/06/26 11:00:59;;;;;;;1.05;0.95;;;35.00;69.50;;;;;;5071454;28;20290;-79
2022/06/26 11:03:28;;;;;;;1.00;0.80;;;35.20;69.30;;;;;;5078573;28;20207;-79
2022/06/26 11:05:59;;;;;;;2.35;0.80;;;35.20;69.30;;;;;;5074492;28;20231;-79
2022/06/26 11:08:31;;;;;;;0.82;0.82;;;35.10;67.90;;;;;;5079184;28;20200;-78
2022/06/26 11:11:02;;;;;;;1.58;0.80;;;34.90;66.80;;;;;;5067729;28;20241;-79
2022/06/26 11:13:31;;;;;;;0.68;0.68;;;34.90;71.10;;;;;;5074023;28;20200;-79
2022/06/26 11:16:01;;;;;;;0.73;0.73;;;34.60;65.90;;;;;;5074887;28;20261;-79
2022/06/26 11:18:34;;;;;;;2.38;0.88;;;34.10;66.60;;;;;;5077439;28;20294;-77
2022/06/26 11:21:04;;;;;;;1.45;1.00;;;33.90;67.30;;;;;;5070790;28;20705;-76
2022/06/26 11:23:33;;;;;;;0.90;0.82;;;32.90;68.00;;;;;;5070081;28;20234;-75
2022/06/26 11:26:03;;;;;;;1.17;1.05;;;33.10;67.20;;;;;;5071875;28;20254;-76
2022/06/26 11:28:33;;;;;;;1.73;1.30;;;33.00;69.10;;;;;;5071505;28;20304;-77
2022/06/26 11:31:04;;;;;;;1.02;0.80;;;33.30;70.70;;;;;;5074725;28;20212;-79
2022/06/26 11:33:37;;;;;;;1.30;1.05;;;33.60;73.80;;;;;;5076353;28;20218;-78
2022/06/26 11:36:07;;;;;;;0.75;0.75;;;33.50;69.30;;;;;;5072802;28;20285;-77
2022/06/26 11:38:36;;;;;;;1.65;0.80;;;33.20;69.50;;;;;;5072421;28;20231;-78
2022/06/26 11:41:07;;;;;;;1.00;0.77;;;32.70;71.20;;;;;;5072220;28;20212;-80
2022/06/26 11:43:44;;;;;;;1.45;0.80;;;32.70;72.50;;;;;;5070414;28;20281;-78
2022/06/26 11:46:15;;;;;;;0.70;0.70;;;32.70;70.40;;;;;;5065050;28;20207;-79
2022/06/26 11:48:44;;;;;;;0.82;0.57;;;31.70;69.10;;;;;;5056590;28;20226;-77
2022/06/26 11:51:14;;;;;;;2.00;0.77;;;30.80;71.00;;;;;;5063063;28;20329;-75
2022/06/26 11:53:45;;;;;;;1.85;0.82;;;30.50;75.20;;;;;;5063624;28;20226;-79
2022/06/26 11:56:19;;;;;;;0.70;0.70;;;30.20;75.10;;;;;;5063734;28;20208;-75
2022/06/26 11:58:50;;;;;;;0.93;0.77;;;30.10;72.70;;;;;;5062738;28;20250;-76
2022/06/26 12:01:21;;;;;;;1.30;0.80;;;30.40;80.10;;;;;;5074738;28;20207;-77
2022/06/26 12:03:54;;;;;;;1.73;0.80;;;30.60;81.90;;;;;;5064482;28;20245;-77
2022/06/26 12:06:33;;;;;;;1.30;1.20;;;30.40;77.30;;;;;;5063485;28;20590;-76
2022/06/26 12:09:18;;;;;;;0.80;0.80;;;30.50;80.20;;;;;;5058587;28;20291;-78
2022/06/26 12:11:48;;;;;;;0.77;0.77;;;30.70;82.90;;;;;;5065365;28;20299;-79
2022/06/26 12:14:18;;;;;;;1.47;0.97;;;30.60;78.20;;;;;;5062744;28;20603;-77
2022/06/26 12:16:49;;;;;;;1.20;0.80;;;30.70;78.60;;;;;;5064835;28;20212;-75
2022/06/26 12:19:19;;;;;;;0.90;0.90;;;30.70;81.70;;;;;;5072902;28;20686;-77
2022/06/26 12:21:48;;;;;;;1.60;0.93;;;30.80;78.40;;;;;;5078056;28;20256;-79
2022/06/26 12:24:18;;;;;;;1.67;1.20;;;30.80;79.00;;;;;;5075938;28;20207;-76
2022/06/26 12:26:46;;;;;;;1.07;0.97;;;30.50;79.10;;;;;;5072520;28;20262;-77
2022/06/26 12:29:17;;;;;;;1.20;1.10;;;30.30;80.60;;;;;;5074929;28;20905;-77
2022/06/26 12:31:55;;;;;;;1.40;0.90;;;30.10;80.80;;;;;;5072379;28;20219;-75
2022/06/26 12:34:23;;;;;;;1.07;1.07;;;29.80;81.00;;;;;;5068564;28;20196;-77
2022/06/26 12:36:51;;;;;;;1.10;1.00;;;29.50;80.40;;;;;;5069714;28;20207;-76
2022/06/26 12:39:20;;;;;;;0.93;0.80;;;29.60;79.50;;;;;;5072105;28;20261;-77
2022/06/26 12:42:09;;;;;;;1.40;1.00;;;29.50;81.10;;;;;;5068495;28;20644;-75
2022/06/26 12:44:38;;;;;;;1.67;1.10;;;29.60;79.30;;;;;;5074879;28;20208;-79
2022/06/26 12:47:07;;;;;;;1.13;0.90;;;29.50;80.30;;;;;;5074981;28;20231;-74
2022/06/26 12:49:36;;;;;;;1.03;0.90;;;29.40;79.40;;;;;;5071063;28;20286;-76
2022/06/26 12:52:07;;;;;;;2.20;0.80;;;29.30;81.00;;;;;;5074696;28;20208;-76
2022/06/26 12:54:35;;;;;;;0.70;0.63;;;29.40;80.30;;;;;;5077024;28;20256;-77
2022/06/26 12:57:04;;;;;;;0.83;0.83;;;29.30;83.60;;;;;;5071001;28;20203;-77
2022/06/26 12:59:33;;;;;;;0.70;0.70;;;29.60;83.40;;;;;;5069823;28;20210;-80
2022/06/26 13:02:02;;;;;;;0.97;0.97;;;29.50;81.80;;;;;;5071238;28;20231;-77
2022/06/26 13:04:32;;;;;;;1.10;1.00;;;29.50;81.60;;;;;;5070949;28;20203;-76
2022/06/26 13:07:00;;;;;;;1.47;0.73;;;29.90;85.50;;;;;;5071060;28;20261;-76
2022/06/26 13:09:29;;;;;;;2.10;0.80;;;29.90;78.70;;;;;;5068392;28;20222;-76
2022/06/26 13:11:57;;;;;;;1.80;0.80;;;29.60;79.60;;;;;;5071985;28;20258;-77